Time;durP1;ratioP1;P1;durP2;ratioP2;P2;SDS_P1;SDS_P2;PMS_P1;PMS_P2;Temp;Humidity;BMP_temperature;BMP_pressure;BME280_temperature;BME280_humidity;BME280_pressure;Samples;Min_cycle;Max_cycle;Signal;HPM_P1;HPM_P2
2022/05/31 00:00:48;;;;;;;5.63;3.53;;;;;;;7.01;74.44;100556.93;1744912;82;21029;-76
2022/05/31 00:03:15;;;;;;;4.33;2.63;;;;;;;6.99;74.69;100553.52;1745216;82;21053;-76
2022/05/31 00:05:44;;;;;;;5.47;3.23;;;;;;;6.97;74.42;100553.98;1744962;82;21104;-76
2022/05/31 00:08:11;;;;;;;4.77;2.97;;;;;;;6.92;74.49;100557.97;1744705;82;20990;-76
2022/05/31 00:10:38;;;;;;;3.57;3.10;;;;;;;6.88;74.59;100560.23;1745133;82;21072;-77
2022/05/31 00:13:06;;;;;;;5.13;3.20;;;;;;;6.84;74.68;100565.93;1745234;82;21033;-77
2022/05/31 00:15:33;;;;;;;3.57;3.03;;;;;;;6.80;74.62;100566.89;1744974;82;20982;-76
2022/05/31 00:18:00;;;;;;;3.33;2.87;;;;;;;6.76;74.70;100569.16;1745066;82;21646;-76
2022/05/31 00:20:28;;;;;;;5.23;2.80;;;;;;;6.74;74.71;100572.22;1745028;82;21056;-79
2022/05/31 00:22:56;;;;;;;4.10;3.10;;;;;;;6.70;74.83;100566.19;1744862;82;21503;-76
2022/05/31 00:25:23;;;;;;;5.57;3.03;;;;;;;6.70;75.02;100567.94;1745171;82;20998;-77
2022/05/31 00:27:51;;;;;;;5.10;3.30;;;;;;;6.67;74.74;100570.16;1745124;82;21123;-76
2022/05/31 00:30:18;;;;;;;4.10;3.07;;;;;;;6.60;74.63;100569.02;1744892;82;21845;-78
2022/05/31 00:32:49;;;;;;;3.60;3.10;;;;;;;6.54;74.84;100567.38;1745078;82;21561;-76
2022/05/31 00:35:22;;;;;;;4.70;3.23;;;;;;;6.52;74.94;100564.39;1749840;80;20986;-76
2022/05/31 00:37:50;;;;;;;4.80;3.40;;;;;;;6.47;74.99;100566.61;1750505;80;21119;-76
2022/05/31 00:40:20;;;;;;;4.03;3.20;;;;;;;6.44;74.91;100573.63;1750936;81;21057;-76
2022/05/31 00:42:58;;;;;;;4.58;3.55;;;;;;;6.40;74.95;100579.75;1751099;81;21134;-77
2022/05/31 00:45:40;;;;;;;4.70;3.50;;;;;;;6.37;75.20;100579.36;1750535;81;21036;-76
2022/05/31 00:48:13;;;;;;;3.97;3.20;;;;;;;6.34;75.19;100585.08;1750879;81;21060;-77
2022/05/31 00:50:51;;;;;;;4.90;3.33;;;;;;;6.31;75.10;100585.98;1720940;82;21132;-77
2022/05/31 00:53:23;;;;;;;6.10;3.43;;;;;;;6.25;75.27;100590.84;1777790;80;21537;-78
2022/05/31 00:55:58;;;;;;;7.20;4.60;;;;;;;6.23;75.25;100591.75;1783814;78;21109;-77
2022/05/31 00:58:30;;;;;;;5.67;4.57;;;;;;;6.20;75.61;100592.66;1758855;80;20984;-76
2022/05/31 01:01:02;;;;;;;6.07;4.60;;;;;;;6.24;76.01;100595.64;1785803;79;21019;-77
2022/05/31 01:03:32;;;;;;;6.63;4.70;;;;;;;6.27;76.41;100592.58;1785480;80;21047;-77
2022/05/31 01:06:00;;;;;;;6.15;4.95;;;;;;;6.29;76.30;100590.38;1785947;79;21539;-76
2022/05/31 01:08:27;;;;;;;6.50;4.90;;;;;;;6.23;76.11;100591.30;1785498;79;21995;-78
2022/05/31 01:11:20;;;;;;;5.67;4.67;;;;;;;6.21;76.12;100590.94;1785571;79;21118;-77
2022/05/31 01:14:06;;;;;;;5.47;3.97;;;;;;;6.17;75.98;100594.02;1785558;79;21039;-78
2022/05/31 01:17:02;;;;;;;4.17;3.67;;;;;;;6.10;75.85;100592.41;1786264;79;21087;-77
2022/05/31 01:19:56;;;;;;;4.93;4.43;;;;;;;6.04;75.73;100604.19;1785616;79;21027;-77
2022/05/31 01:22:49;;;;;;;4.70;4.17;;;;;;;5.98;76.01;100593.43;1785688;79;21512;-77
2022/05/31 01:25:24;;;;;;;5.63;3.97;;;;;;;5.98;76.30;100593.43;1785554;79;21372;-77
2022/05/31 01:28:31;;;;;;;4.03;3.53;;;;;;;5.99;76.34;100593.88;1785918;79;21090;-77
2022/05/31 01:31:13;;;;;;;3.57;3.27;;;;;;;5.97;76.29;100602.58;1785501;80;21046;-76
2022/05/31 01:33:50;;;;;;;5.20;3.77;;;;;;;5.89;75.92;100601.34;1784745;80;21168;-77
2022/05/31 01:36:23;;;;;;;6.57;3.67;;;;;;;5.84;75.98;100608.36;1776857;80;21107;-77
2022/05/31 01:38:55;;;;;;;6.50;4.13;;;;;;;5.80;76.07;100604.09;1777333;80;21043;-77
2022/05/31 01:41:40;;;;;;;4.93;4.07;;;;;;;5.82;76.59;100608.84;1776921;80;20969;-79
2022/05/31 01:44:11;;;;;;;5.00;4.50;;;;;;;5.93;77.03;100613.86;1777534;80;21497;-80
2022/05/31 01:46:38;;;;;;;4.67;4.10;;;;;;;5.95;76.66;100614.74;1777510;80;22950;-77
2022/05/31 01:49:09;;;;;;;5.60;4.13;;;;;;;5.92;76.20;100613.45;1777373;80;21109;-77
2022/05/31 01:51:40;;;;;;;5.80;4.53;;;;;;;5.85;76.18;100607.49;1777769;80;21075;-77
2022/05/31 01:54:10;;;;;;;6.27;4.60;;;;;;;5.84;76.46;100610.10;1777456;80;21740;-77
2022/05/31 01:56:42;;;;;;;5.53;4.47;;;;;;;5.83;76.47;100614.90;1772654;80;21554;-79
2022/05/31 01:59:10;;;;;;;;;;;;;;;5.81;76.28;100614.91;1780136;80;21774;-77
2022/05/31 02:01:39;;;;;;;6.97;4.63;;;;;;;5.79;76.63;100604.54;1777744;80;21133;-77
2022/05/31 02:04:07;;;;;;;5.13;4.43;;;;;;;5.75;76.38;100611.09;1777140;80;21012;-77
2022/05/31 02:06:38;;;;;;;5.47;4.33;;;;;;;5.78;76.66;100614.95;1765948;80;20996;-76
2022/05/31 02:09:10;;;;;;;5.43;4.03;;;;;;;5.76;76.70;100622.80;1777572;80;21091;-77
2022/05/31 02:11:39;;;;;;;5.67;4.70;;;;;;;5.70;76.31;100618.09;1772806;80;21033;-77
2022/05/31 02:14:11;;;;;;;5.50;4.47;;;;;;;5.64;76.21;100617.73;1777509;80;21107;-77
2022/05/31 02:16:39;;;;;;;6.90;4.90;;;;;;;5.62;76.37;100618.64;1777585;80;21106;-76
2022/05/31 02:19:25;;;;;;;8.90;4.90;;;;;;;5.59;76.42;100620.39;1742809;80;21019;-77
2022/05/31 02:22:01;;;;;;;5.40;4.30;;;;;;;5.58;76.66;100616.53;1777726;80;21028;-77
2022/05/31 02:24:29;;;;;;;6.53;5.23;;;;;;;5.56;76.53;100621.73;1777401;80;21063;-78
2022/05/31 02:26:57;;;;;;;6.60;5.80;;;;;;;5.53;76.60;100619.17;1777517;80;21127;-80
2022/05/31 02:29:33;;;;;;;6.70;5.77;;;;;;;5.55;77.30;100622.63;1777043;80;20992;-76
2022/05/31 02:32:03;;;;;;;7.73;6.27;;;;;;;5.66;77.84;100626.39;1777359;80;21023;-77
2022/05/31 02:34:33;;;;;;;;;;;;;;;5.84;78.48;100619.20;1780164;80;20996;-79
2022/05/31 02:37:00;;;;;;;7.33;5.43;;;;;;;5.89;78.17;100620.86;1777448;80;20583;-77
2022/05/31 02:39:28;;;;;;;8.90;5.87;;;;;;;5.92;77.91;100626.47;1777463;80;21234;-79
2022/05/31 02:41:56;;;;;;;8.07;5.93;;;;;;;5.95;78.03;100629.91;1777508;80;21046;-76
2022/05/31 02:44:24;;;;;;;11.17;6.83;;;;;;;5.99;78.01;100631.59;1731908;80;21079;-77
2022/05/31 02:46:51;;;;;;;10.33;7.10;;;;;;;5.99;77.83;100625.09;1777394;80;21059;-77
2022/05/31 02:49:19;;;;;;;12.23;7.40;;;;;;;5.97;77.79;100630.75;1777094;80;20969;-78
2022/05/31 02:51:47;;;;;;;9.57;6.93;;;;;;;5.97;77.80;100628.59;1741967;80;21137;-78
2022/05/31 02:54:18;;;;;;;9.00;7.10;;;;;;;5.95;77.74;100629.91;1740469;80;21049;-80
2022/05/31 02:57:06;;;;;;;10.40;7.08;;;;;;;5.94;77.62;100635.15;1637975;86;21536;-76
2022/05/31 02:59:51;;;;;;;9.90;7.60;;;;;;;5.89;77.59;100631.72;1637896;86;21093;-77
2022/05/31 03:02:28;;;;;;;10.40;7.83;;;;;;;5.87;77.71;100630.42;1692818;80;20989;-77
2022/05/31 03:05:14;;;;;;;9.27;6.90;;;;;;;5.81;77.37;100633.97;1740496;80;21654;-77
2022/05/31 03:07:50;;;;;;;10.17;7.93;;;;;;;5.75;77.40;100633.20;1735838;80;20965;-77
2022/05/31 03:10:19;;;;;;;11.05;8.13;;;;;;;5.70;77.32;100633.70;1740376;80;21045;-78
2022/05/31 03:12:48;;;;;;;11.40;7.80;;;;;;;5.68;77.68;100632.85;1740369;80;21510;-76
2022/05/31 03:15:19;;;;;;;12.03;7.90;;;;;;;5.66;77.59;100630.29;1740703;80;21060;-78
2022/05/31 03:17:59;;;;;;;9.73;7.65;;;;;;;5.65;77.77;100628.55;1740464;80;22020;-76
2022/05/31 03:20:32;;;;;;;9.87;7.57;;;;;;;5.66;77.92;100629.44;1740738;80;21048;-78
2022/05/31 03:23:07;;;;;;;11.40;8.33;;;;;;;5.67;78.07;100626.80;1736735;80;21563;-77
2022/05/31 03:25:36;;;;;;;11.43;8.20;;;;;;;5.69;78.13;100628.09;1740118;80;21041;-76
2022/05/31 03:28:06;;;;;;;9.53;7.70;;;;;;;5.69;78.27;100625.48;1740331;80;21010;-76
2022/05/31 03:30:38;;;;;;;10.60;7.53;;;;;;;5.72;78.37;100626.75;1740812;80;21110;-78
2022/05/31 03:33:09;;;;;;;9.07;7.40;;;;;;;5.73;78.41;100627.16;1751190;80;21043;-78
2022/05/31 03:35:38;;;;;;;10.40;7.43;;;;;;;5.72;78.48;100627.59;1773966;80;21041;-77
2022/05/31 03:38:07;;;;;;;9.13;7.67;;;;;;;5.76;78.58;100627.11;1767062;80;21002;-76
2022/05/31 03:43:26;;;;;;;8.40;6.87;;;;;;;5.82;78.73;100630.95;1770460;80;21103;-78
2022/05/31 03:46:15;;;;;;;7.90;6.50;;;;;;;5.83;78.60;100633.96;1641467;86;21533;-76
2022/05/31 03:48:44;;;;;;;7.83;6.10;;;;;;;5.80;78.58;100632.70;1705009;80;21027;-77
2022/05/31 03:51:12;;;;;;;8.90;7.10;;;;;;;5.85;78.87;100637.41;1775960;80;21043;-78
2022/05/31 03:53:39;;;;;;;8.10;6.67;;;;;;;5.89;78.87;100640.37;1771474;80;21106;-76
2022/05/31 03:56:10;;;;;;;8.97;6.97;;;;;;;5.90;78.75;100645.12;1771677;80;21090;-78
2022/05/31 03:58:39;;;;;;;6.80;6.03;;;;;;;5.90;78.79;100646.43;1768152;80;21545;-77
2022/05/31 04:01:21;;;;;;;7.47;6.47;;;;;;;5.93;79.13;100652.50;1775376;80;21027;-76
2022/05/31 04:03:49;;;;;;;7.27;5.93;;;;;;;5.99;79.27;100651.11;1768351;80;21124;-76
2022/05/31 04:06:16;;;;;;;6.47;5.77;;;;;;;6.06;79.54;100647.97;1773896;80;21052;-76
2022/05/31 04:08:44;;;;;;;7.63;6.57;;;;;;;6.18;80.19;100655.61;1773698;80;21756;-76
2022/05/31 04:11:11;;;;;;;8.20;6.50;;;;;;;6.34;80.30;100656.22;1775632;80;21015;-76
2022/05/31 04:13:39;;;;;;;8.60;7.20;;;;;;;6.41;80.17;100653.95;1775976;80;21000;-76
2022/05/31 04:16:26;;;;;;;8.80;7.90;;;;;;;6.51;80.40;100653.79;1771714;80;21489;-77
2022/05/31 04:18:55;;;;;;;9.40;7.70;;;;;;;6.66;80.71;100654.86;1771156;80;21055;-75
2022/05/31 04:21:22;;;;;;;9.30;8.17;;;;;;;6.76;80.63;100661.64;1769022;80;21869;-76
2022/05/31 04:23:59;;;;;;;9.90;7.90;;;;;;;6.84;80.48;100657.57;1754122;80;21078;-76
2022/05/31 04:26:47;;;;;;;11.63;9.00;;;;;;;6.93;80.74;100656.12;1699716;80;21037;-76
2022/05/31 04:29:35;;;;;;;9.67;8.17;;;;;;;7.05;80.60;100656.34;1735626;80;21049;-77
2022/05/31 04:32:08;;;;;;;11.53;7.17;;;;;;;7.13;80.61;100658.36;1735657;80;21030;-76
2022/05/31 04:34:37;;;;;;;9.73;8.27;;;;;;;7.20;80.48;100656.03;1731303;80;21226;-77
2022/05/31 04:37:06;;;;;;;8.87;7.97;;;;;;;7.25;80.48;100660.72;1748276;80;21016;-77
2022/05/31 04:39:44;;;;;;;8.93;8.03;;;;;;;7.31;80.56;100656.69;1748242;80;21589;-76
2022/05/31 04:42:13;;;;;;;8.23;7.43;;;;;;;7.33;80.37;100660.13;1746233;80;21499;-78
2022/05/31 04:44:40;;;;;;;8.97;7.93;;;;;;;7.35;80.48;100661.42;1729697;81;21066;-76
2022/05/31 04:47:08;;;;;;;9.43;8.13;;;;;;;7.36;80.35;100656.16;1722958;81;21137;-76
2022/05/31 04:49:40;;;;;;;9.17;7.70;;;;;;;7.39;80.47;100656.55;1750331;80;21045;-76
2022/05/31 04:52:07;;;;;;;10.33;7.33;;;;;;;7.40;80.37;100659.59;1751367;80;21593;-77
2022/05/31 04:54:36;;;;;;;10.40;7.87;;;;;;;7.43;80.53;100657.33;1747081;80;20972;-78
2022/05/31 04:57:08;;;;;;;10.30;8.03;;;;;;;7.46;80.70;100659.91;1746762;80;21044;-76
2022/05/31 04:59:36;;;;;;;8.90;7.90;;;;;;;7.50;80.88;100662.41;1749559;80;21525;-76
2022/05/31 05:02:04;;;;;;;9.23;7.90;;;;;;;7.58;81.04;100662.25;1750651;80;21071;-76
2022/05/31 05:04:39;;;;;;;8.73;7.43;;;;;;;7.65;81.04;100660.36;1750524;80;21025;-76
2022/05/31 05:07:07;;;;;;;9.30;8.27;;;;;;;7.71;81.18;100661.12;1761321;80;21001;-76
2022/05/31 05:09:34;;;;;;;8.97;8.07;;;;;;;7.75;81.07;100657.53;1779992;79;21571;-76
2022/05/31 05:12:18;;;;;;;9.07;7.70;;;;;;;7.79;81.00;100661.81;1779800;79;21096;-76
2022/05/31 05:14:47;;;;;;;10.37;8.10;;;;;;;7.82;81.08;100666.96;1782723;79;21047;-76
2022/05/31 05:17:16;;;;;;;9.07;7.83;;;;;;;7.90;81.26;100671.14;1782740;79;21068;-76
2022/05/31 05:19:45;;;;;;;9.07;8.00;;;;;;;7.95;81.24;100663.66;1778875;79;21016;-76
2022/05/31 05:22:12;;;;;;;9.40;8.20;;;;;;;8.02;81.32;100673.50;1751947;80;21031;-77
2022/05/31 05:24:40;;;;;;;9.50;8.30;;;;;;;8.08;81.44;100672.50;1748199;80;21761;-78
2022/05/31 05:27:09;;;;;;;10.80;9.33;;;;;;;8.14;81.55;100666.69;1745111;80;21755;-74
2022/05/31 05:32:34;;;;;;;12.07;8.43;;;;;;;8.33;82.01;100667.13;1748449;80;21040;-75
2022/05/31 05:35:03;;;;;;;10.83;8.97;;;;;;;8.44;81.91;100672.98;1723217;80;21295;-75
2022/05/31 05:37:31;;;;;;;10.00;8.60;;;;;;;8.54;82.12;100670.17;1756429;80;21184;-77
2022/05/31 05:40:00;;;;;;;10.80;9.33;;;;;;;8.66;82.28;100673.33;1735027;80;21096;-77
2022/05/31 05:42:32;;;;;;;10.40;9.30;;;;;;;8.76;82.12;100671.77;1733119;80;21018;-77
2022/05/31 05:45:11;;;;;;;10.83;8.90;;;;;;;8.87;82.25;100677.16;1753130;80;20988;-77
2022/05/31 05:47:39;;;;;;;10.17;8.70;;;;;;;8.97;82.40;100670.38;1784043;80;21039;-77
2022/05/31 05:50:08;;;;;;;8.40;7.53;;;;;;;9.09;82.24;100670.05;1786821;80;21797;-77
2022/05/31 05:52:50;;;;;;;9.40;7.90;;;;;;;9.18;82.10;100668.52;1725917;81;21063;-77
2022/05/31 05:55:38;;;;;;;8.88;7.97;;;;;;;9.28;82.04;100667.34;1761775;80;23157;-77
2022/05/31 05:58:24;;;;;;;9.80;8.07;;;;;;;9.40;82.21;100671.40;1756806;80;21048;-77
2022/05/31 06:01:36;;;;;;;9.17;8.20;;;;;;;9.53;82.07;100681.05;1687655;83;21184;-75
2022/05/31 06:04:12;;;;;;;9.07;6.90;;;;;;;9.66;82.33;100676.34;1713544;80;21208;-76
2022/05/31 06:06:42;;;;;;;8.73;6.80;;;;;;;9.82;82.57;100675.84;1740276;80;21049;-76
2022/05/31 06:09:14;;;;;;;7.83;6.28;;;;;;;9.97;82.18;100676.28;1740336;80;21037;-76
2022/05/31 06:11:53;;;;;;;8.10;6.73;;;;;;;10.07;82.06;100675.11;1740075;80;21054;-77
2022/05/31 06:14:44;;;;;;;8.57;6.50;;;;;;;10.20;81.95;100683.47;1740337;80;21045;-79
2022/05/31 06:17:16;;;;;;;8.50;6.63;;;;;;;10.32;81.89;100680.94;1750583;80;21137;-77
2022/05/31 06:19:46;;;;;;;7.83;5.80;;;;;;;10.48;81.73;100679.55;1758247;80;21059;-78
2022/05/31 06:22:13;;;;;;;6.10;5.47;;;;;;;10.61;81.59;100686.55;1786815;80;20995;-78
2022/05/31 06:24:46;;;;;;;6.77;4.70;;;;;;;10.69;81.04;100684.07;1780232;80;21038;-80
2022/05/31 06:27:31;;;;;;;8.97;5.20;;;;;;;10.81;80.68;100679.33;1788859;80;21020;-77
2022/05/31 06:29:59;;;;;;;4.97;4.47;;;;;;;10.88;80.49;100683.01;1791930;80;21791;-76
2022/05/31 06:32:26;;;;;;;8.13;5.90;;;;;;;11.01;80.49;100685.23;1789503;80;21086;-76
2022/05/31 06:34:54;;;;;;;7.27;5.40;;;;;;;11.13;80.40;100693.52;1788595;80;21086;-78
2022/05/31 06:37:36;;;;;;;5.87;4.13;;;;;;;11.21;80.28;100682.77;1788817;80;21020;-77
2022/05/31 06:40:05;;;;;;;4.30;3.90;;;;;;;11.33;80.26;100687.59;1790416;78;21528;-76
2022/05/31 06:42:34;;;;;;;4.17;3.50;;;;;;;11.46;80.13;100685.83;1788859;80;21124;-77
2022/05/31 06:45:19;;;;;;;5.37;3.92;;;;;;;11.57;79.72;100689.77;1771305;80;21063;-79
2022/05/31 06:48:06;;;;;;;5.53;3.42;;;;;;;11.71;79.64;100687.10;1754565;80;20993;-78
2022/05/31 06:50:38;;;;;;;3.72;3.12;;;;;;;11.88;79.57;100678.63;1697779;80;21051;-77
2022/05/31 06:58:49;;;;;;;5.93;3.50;;;;;;;12.27;79.03;100685.41;1745880;80;21111;-77
2022/05/31 07:01:17;;;;;;;4.28;3.08;;;;;;;12.45;78.65;100682.06;1759089;80;21005;-77
2022/05/31 07:03:45;;;;;;;4.22;2.83;;;;;;;12.56;78.30;100680.78;1758699;80;21542;-77
2022/05/31 07:06:12;;;;;;;4.97;3.00;;;;;;;12.71;78.26;100682.30;1710146;82;21059;-77
2022/05/31 07:08:41;;;;;;;3.90;2.80;;;;;;;12.83;77.52;100684.91;1725176;81;22026;-77
2022/05/31 07:11:22;;;;;;;5.35;2.87;;;;;;;12.97;77.49;100681.69;1724677;81;21051;-79
2022/05/31 07:14:06;;;;;;;3.20;2.27;;;;;;;13.14;76.97;100681.81;1657838;85;21114;-78
2022/05/31 07:16:53;;;;;;;4.60;2.05;;;;;;;13.29;76.54;100681.63;1709156;83;21012;-77
2022/05/31 07:19:42;;;;;;;4.80;2.02;;;;;;;13.43;76.26;100678.39;1725345;81;21409;-77
2022/05/31 07:22:09;;;;;;;4.40;2.72;;;;;;;13.56;75.68;100682.19;1725379;81;21911;-77
2022/05/31 07:24:38;;;;;;;7.47;2.80;;;;;;;13.71;75.36;100679.31;1725378;81;21032;-79
2022/05/31 07:27:07;;;;;;;4.30;2.65;;;;;;;13.85;75.37;100676.05;1724059;81;21064;-78
2022/05/31 07:29:35;;;;;;;4.37;2.60;;;;;;;13.97;74.97;100675.97;1725315;81;21009;-77
2022/05/31 07:32:03;;;;;;;3.52;2.20;;;;;;;14.13;74.85;100669.48;1689825;83;21079;-77
2022/05/31 07:34:32;;;;;;;3.15;2.22;;;;;;;14.22;73.80;100676.52;1725519;81;21120;-77
2022/05/31 07:37:00;;;;;;;5.67;2.33;;;;;;;14.29;73.25;100668.68;1713897;82;21065;-78
2022/05/31 07:39:28;;;;;;;3.47;2.37;;;;;;;14.43;72.90;100669.33;1707234;82;21041;-78
2022/05/31 07:41:56;;;;;;;3.98;2.30;;;;;;;14.53;72.70;100664.98;1707274;82;21025;-77
2022/05/31 07:44:25;;;;;;;3.35;2.00;;;;;;;14.61;72.01;100663.66;1707305;82;21040;-78
2022/05/31 07:46:54;;;;;;;2.87;2.37;;;;;;;14.62;71.04;100665.36;1707138;82;21140;-78
2022/05/31 07:49:22;;;;;;;4.62;2.33;;;;;;;14.65;70.98;100668.31;1707214;82;21053;-79
2022/05/31 07:52:10;;;;;;;4.17;2.45;;;;;;;14.74;71.03;100658.61;1707337;82;21058;-78
2022/05/31 07:54:55;;;;;;;4.83;2.10;;;;;;;14.89;70.88;100659.64;1707243;82;22207;-77
2022/05/31 08:00:21;;;;;;;8.78;1.70;;;;;;;15.18;70.00;100658.13;1701569;82;21319;-77
2022/05/31 08:02:48;;;;;;;3.60;1.67;;;;;;;15.18;69.08;100662.09;1707438;82;21519;-77
2022/05/31 08:05:16;;;;;;;4.85;2.70;;;;;;;15.20;68.42;100648.82;1707130;82;21033;-78
2022/05/31 08:07:44;;;;;;;3.45;1.80;;;;;;;15.25;68.80;100647.64;1707259;82;21133;-76
2022/05/31 08:10:13;;;;;;;2.65;1.67;;;;;;;15.36;68.20;100645.77;1707203;82;21013;-79
2022/05/31 08:12:40;;;;;;;2.30;1.98;;;;;;;15.43;67.50;100648.92;1708905;82;21801;-77
2022/05/31 08:15:10;;;;;;;3.55;1.90;;;;;;;15.49;67.43;100652.11;1708789;82;21053;-78
2022/05/31 08:17:37;;;;;;;3.70;1.80;;;;;;;15.57;66.99;100644.63;1707469;82;21085;-77
2022/05/31 08:20:07;;;;;;;4.33;1.92;;;;;;;15.59;66.62;100645.37;1707272;82;21009;-77
2022/05/31 08:22:36;;;;;;;2.75;1.75;;;;;;;15.71;66.71;100645.67;1707310;82;21010;-76
2022/05/31 08:25:04;;;;;;;3.37;1.60;;;;;;;15.83;66.41;100643.70;1707197;82;21144;-78
2022/05/31 08:27:34;;;;;;;2.45;1.87;;;;;;;15.97;66.37;100642.94;1707251;82;21029;-77
2022/05/31 08:30:03;;;;;;;3.62;1.90;;;;;;;16.17;66.48;100639.17;1742826;80;21032;-77
2022/05/31 08:32:33;;;;;;;3.25;1.98;;;;;;;16.38;66.52;100630.02;1742851;80;21549;-77
2022/05/31 08:35:02;;;;;;;2.47;1.70;;;;;;;16.53;65.00;100636.68;1742952;80;21065;-77
2022/05/31 08:37:30;;;;;;;2.45;1.90;;;;;;;16.53;65.00;100636.68;1737144;81;21232;-77
2022/05/31 08:39:58;;;;;;;3.12;1.67;;;;;;;16.55;63.99;100640.95;1687809;83;21031;-77
2022/05/31 08:42:50;;;;;;;2.25;1.70;;;;;;;16.59;64.01;100633.19;1734818;81;20986;-77
2022/05/31 08:45:38;;;;;;;2.25;1.60;;;;;;;16.70;63.56;100637.86;1687943;83;21249;-77
2022/05/31 08:48:28;;;;;;;1.50;1.32;;;;;;;16.80;63.46;100638.22;1733701;81;20992;-77
2022/05/31 08:56:58;;;;;;;2.60;1.60;;;;;;;16.98;61.37;100621.22;1717098;81;21056;-77
2022/05/31 09:00:07;;;;;;;3.30;1.40;;;;;;;17.05;60.98;100622.56;1717122;81;21068;-77
2022/05/31 09:03:07;;;;;;;2.75;1.60;;;;;;;17.17;61.32;100611.69;1717306;81;21589;-77
2022/05/31 09:05:48;;;;;;;2.70;1.30;;;;;;;17.30;60.56;100606.02;1717305;81;21200;-77
2022/05/31 09:08:51;;;;;;;2.05;1.20;;;;;;;17.47;60.12;100608.95;1750923;80;21067;-76
2022/05/31 09:11:35;;;;;;;2.25;1.32;;;;;;;17.53;59.74;100607.23;1749114;80;21076;-77
2022/05/31 09:14:07;;;;;;;2.45;1.25;;;;;;;17.65;59.18;100603.43;1750652;81;21036;-77
2022/05/31 09:16:46;;;;;;;1.50;1.20;;;;;;;17.77;58.89;100608.81;1734926;81;21520;-78
2022/05/31 09:19:31;;;;;;;2.58;1.05;;;;;;;17.94;58.62;100606.92;1688731;83;21004;-76
2022/05/31 09:22:01;;;;;;;2.17;1.10;;;;;;;18.06;58.30;100606.95;1689368;83;20983;-78
2022/05/31 09:24:29;;;;;;;1.27;0.98;;;;;;;18.21;57.92;100608.26;1739825;80;20988;-76
2022/05/31 09:27:09;;;;;;;2.70;1.05;;;;;;;18.30;57.40;100601.49;1688106;83;21031;-77
2022/05/31 09:30:02;;;;;;;3.47;1.20;;;;;;;18.38;57.34;100601.36;1752749;81;21055;-76
2022/05/31 09:32:40;;;;;;;1.98;1.42;;;;;;;18.55;57.18;100597.57;1766266;81;21103;-76
2022/05/31 09:35:48;;;;;;;1.95;1.15;;;;;;;18.68;56.71;100591.81;1751960;81;21064;-76
2022/05/31 09:38:57;;;;;;;2.05;1.12;;;;;;;18.80;56.41;100590.16;1751506;80;21001;-82
2022/05/31 09:41:41;;;;;;;2.52;0.93;;;;;;;18.93;55.65;100586.19;1746833;81;21076;-77
2022/05/31 09:44:34;;;;;;;1.67;0.82;;;;;;;19.12;55.63;100581.75;1711773;81;21562;-78
2022/05/31 09:47:14;;;;;;;2.85;0.90;;;;;;;19.27;55.07;100575.86;1750292;81;21188;-76
2022/05/31 09:49:46;;;;;;;1.00;0.90;;;;;;;19.31;54.45;100576.00;1769628;80;20947;-78
2022/05/31 09:52:37;;;;;;;3.42;1.40;;;;;;;19.39;53.98;100572.31;1750310;81;21071;-77
2022/05/31 09:58:39;;;;;;;1.30;0.90;;;;;;;19.36;52.66;100577.37;1747754;81;21014;-77
2022/05/31 10:01:29;;;;;;;1.15;0.70;;;;;;;19.43;52.47;100567.62;1749705;80;21103;-77
2022/05/31 10:04:29;;;;;;;1.15;0.70;;;;;;;19.50;51.93;100563.58;1764251;81;21509;-77
2022/05/31 10:07:07;;;;;;;3.75;0.95;;;;;;;19.60;51.62;100557.98;1751958;81;21004;-76
2022/05/31 10:09:48;;;;;;;2.10;0.90;;;;;;;19.74;51.81;100558.34;1751249;81;21147;-77
2022/05/31 10:12:23;;;;;;;2.60;0.90;;;;;;;19.90;51.26;100557.59;1750496;81;21060;-76
2022/05/31 10:14:54;;;;;;;1.65;0.88;;;;;;;20.08;50.68;100555.36;1751081;81;21220;-78
2022/05/31 10:17:39;;;;;;;1.42;0.80;;;;;;;20.26;50.28;100549.16;1752649;81;20993;-76
2022/05/31 10:20:19;;;;;;;0.98;0.70;;;;;;;20.41;49.79;100545.81;1767988;80;21127;-78
2022/05/31 10:23:06;;;;;;;1.42;0.70;;;;;;;20.62;49.67;100548.21;1751373;81;21456;-76
2022/05/31 10:25:58;;;;;;;1.65;0.80;;;;;;;20.87;48.75;100535.66;1742954;81;21055;-76
2022/05/31 10:28:55;;;;;;;1.07;0.70;;;;;;;21.14;48.89;100531.29;1734535;81;21159;-77
2022/05/31 10:31:37;;;;;;;3.40;1.10;;;;;;;21.36;47.87;100533.94;1744665;81;21044;-76
2022/05/31 10:34:24;;;;;;;2.55;0.80;;;;;;;21.56;48.04;100533.72;1760981;81;20976;-77
2022/05/31 10:36:58;;;;;;;1.25;0.70;;;;;;;21.94;47.59;100530.20;1741289;80;21133;-77
2022/05/31 10:39:33;;;;;;;1.62;0.90;;;;;;;22.24;46.93;100534.36;1732710;81;21527;-78
2022/05/31 10:42:02;;;;;;;1.75;0.85;;;;;;;22.48;46.02;100522.09;1693004;84;21883;-82
2022/05/31 10:44:34;;;;;;;1.00;0.60;;;;;;;23.02;44.98;100520.16;1738025;81;21479;-77
2022/05/31 10:47:09;;;;;;;1.47;0.68;;;;;;;23.02;44.98;100520.16;1689406;83;20998;-77
2022/05/31 10:49:37;;;;;;;1.82;0.70;;;;;;;23.24;44.55;100530.31;1728104;81;21030;-78
2022/05/31 10:52:22;;;;;;;1.90;0.85;;;;;;;23.45;44.06;100516.88;1730031;81;21045;-79
2022/05/31 10:55:28;;;;;;;0.80;0.70;;;;;;;23.71;43.77;100520.74;1726264;81;22216;-78
2022/05/31 10:58:30;;;;;;;1.50;0.80;;;;;;;23.92;43.36;100519.30;1729795;81;21037;-78
2022/05/31 11:01:34;;;;;;;1.05;0.70;;;;;;;24.15;42.66;100515.00;1704418;83;21538;-78
2022/05/31 11:04:27;;;;;;;2.27;0.75;;;;;;;24.16;42.17;100514.84;1734005;81;21522;-79
2022/05/31 11:07:15;;;;;;;1.75;0.82;;;;;;;24.30;42.41;100515.39;1688097;83;21026;-78
2022/05/31 11:13:01;;;;;;;0.88;0.70;;;;;;;24.76;41.71;100505.75;1690647;83;21038;-79
2022/05/31 11:15:49;;;;;;;2.95;0.85;;;;;;;24.87;41.43;100503.73;1735186;81;20994;-78
2022/05/31 11:18:40;;;;;;;0.82;0.70;;;;;;;25.09;41.13;100494.47;1688127;83;21130;-78
2022/05/31 11:21:30;;;;;;;3.52;0.90;;;;;;;25.37;41.04;100495.33;1705899;82;21018;-77
2022/05/31 11:24:33;;;;;;;1.65;0.80;;;;;;;25.27;40.08;100495.88;1687321;83;21130;-77
2022/05/31 11:27:43;;;;;;;1.32;1.00;;;;;;;25.10;40.01;100488.09;1734364;81;21018;-77
2022/05/31 11:30:27;;;;;;;1.77;0.78;;;;;;;25.01;40.55;100489.50;1688099;83;20943;-77
2022/05/31 11:33:15;;;;;;;1.57;0.80;;;;;;;25.15;40.37;100485.02;1714639;82;21041;-78
2022/05/31 11:36:09;;;;;;;2.75;0.80;;;;;;;25.24;40.06;100481.42;1688166;83;21047;-78
2022/05/31 11:38:59;;;;;;;4.10;1.27;;;;;;;25.31;39.77;100487.89;1697139;82;21896;-79
2022/05/31 11:41:59;;;;;;;3.00;0.98;;;;;;;25.42;39.81;100480.64;1746392;82;21076;-77
2022/05/31 11:45:06;;;;;;;2.20;0.90;;;;;;;25.52;39.35;100486.77;1717324;83;21060;-77
2022/05/31 11:48:02;;;;;;;3.27;0.80;;;;;;;25.62;39.53;100481.34;1746635;82;21005;-77
2022/05/31 11:51:09;;;;;;;1.30;0.78;;;;;;;25.75;39.08;100478.63;1671290;83;48191;-79
2022/05/31 11:53:50;;;;;;;2.67;0.80;;;;;;;25.90;38.91;100477.61;1746568;82;21189;-77
2022/05/31 11:56:31;;;;;;;2.87;0.75;;;;;;;25.53;37.80;100462.47;1682684;83;20969;-77
2022/05/31 11:59:23;;;;;;;1.82;0.90;;;;;;;25.01;37.67;100460.84;1734578;82;21493;-78
2022/05/31 12:01:56;;;;;;;1.30;0.95;;;;;;;24.50;37.53;100463.52;1709024;83;20994;-78
2022/05/31 12:04:40;;;;;;;2.02;0.82;;;;;;;24.27;38.18;100459.77;1741454;82;21052;-77
2022/05/31 12:07:18;;;;;;;1.82;0.72;;;;;;;24.41;38.25;100453.63;1743600;82;21096;-79
2022/05/31 12:10:18;;;;;;;2.70;1.20;;;;;;;24.18;38.33;100456.63;1714810;83;21451;-77
2022/05/31 12:12:46;;;;;;;2.50;0.98;;;;;;;23.80;38.39;100450.31;1746520;82;21008;-78
2022/05/31 12:15:27;;;;;;;1.52;1.00;;;;;;;23.98;38.96;100449.63;1715638;83;21537;-77
2022/05/31 12:18:03;;;;;;;1.00;0.90;;;;;;;24.27;39.20;100445.05;1745947;82;21355;-78
2022/05/31 12:20:54;;;;;;;3.95;0.90;;;;;;;24.56;39.11;100440.66;1720665;82;21569;-80
2022/05/31 12:23:42;;;;;;;1.92;1.05;;;;;;;24.90;38.75;100432.88;1715221;83;21029;-77
2022/05/31 12:26:40;;;;;;;3.52;0.88;;;;;;;25.10;38.61;100430.94;1740973;82;21135;-79
2022/05/31 12:29:27;;;;;;;2.75;1.15;;;;;;;24.99;38.50;100427.13;1738396;82;21606;-81
2022/05/31 12:32:22;;;;;;;1.92;1.20;;;;;;;24.61;37.79;100433.00;1715174;83;21552;-80
2022/05/31 12:34:49;;;;;;;1.02;0.70;;;;;;;24.34;38.15;100427.08;1746411;81;21816;-78
2022/05/31 12:37:17;;;;;;;3.42;1.10;;;;;;;24.47;38.07;100419.58;1695525;83;20991;-82
2022/05/31 12:39:47;;;;;;;2.20;0.90;;;;;;;24.72;37.92;100418.09;1702656;82;21056;-79